Time;durP1;ratioP1;P1;durP2;ratioP2;P2;SDS_P1;SDS_P2;PMS_P1;PMS_P2;Temp;Humidity;BMP_temperature;BMP_pressure;BME280_temperature;BME280_humidity;BME280_pressure;Samples;Min_cycle;Max_cycle;Signal;HPM_P1;HPM_P2
2022/08/05 00:01:59;;;;;;;4.63;2.65;;;;;;;18.77;69.75;94745.47;5131965;27;20205;-77
2022/08/05 00:04:26;;;;;;;3.92;3.22;;;;;;;18.74;69.79;94757.19;5131797;27;20261;-77
2022/08/05 00:06:53;;;;;;;6.65;3.10;;;;;;;18.71;69.98;94755.22;5132214;27;20639;-77
2022/08/05 00:09:20;;;;;;;3.83;2.92;;;;;;;18.86;70.14;94748.69;5131920;27;20543;-77
2022/08/05 00:11:49;;;;;;;5.35;2.30;;;;;;;18.81;69.55;94755.31;5132317;27;20228;-77
2022/08/05 00:14:16;;;;;;;3.60;2.30;;;;;;;18.76;69.49;94754.84;5132602;27;20270;-77
2022/08/05 00:16:43;;;;;;;31.70;3.90;;;;;;;18.78;69.25;94752.53;5118532;27;20193;-77
2022/08/05 00:19:10;;;;;;;6.47;2.47;;;;;;;18.78;69.25;94752.53;5132520;27;20208;-77
2022/08/05 00:21:37;;;;;;;3.63;2.63;;;;;;;18.84;69.68;94745.53;5131994;27;20212;-76
2022/08/05 00:24:05;;;;;;;8.18;3.20;;;;;;;18.85;70.14;94741.63;5131222;27;20706;-77
2022/08/05 00:26:31;;;;;;;4.80;3.15;;;;;;;18.69;70.47;94739.13;5131102;27;20257;-76
2022/08/05 00:29:00;;;;;;;3.33;2.42;;;;;;;18.65;70.36;94740.22;5130994;27;20644;-77
2022/08/05 00:31:29;;;;;;;4.25;3.13;;;;;;;18.56;71.10;94745.22;5131628;27;20287;-77
2022/08/05 00:33:55;;;;;;;4.53;2.72;;;;;;;18.65;70.97;94737.50;5131095;27;20204;-77
2022/08/05 00:36:23;;;;;;;4.90;2.78;;;;;;;18.63;70.74;94739.81;5131259;27;20270;-77
2022/08/05 00:38:50;;;;;;;5.05;3.20;;;;;;;18.69;70.66;94732.84;5131547;27;20200;-77
2022/08/05 00:41:27;;;;;;;5.03;2.90;;;;;;;18.57;70.59;94731.13;5131309;27;20224;-77
2022/08/05 00:43:54;;;;;;;3.20;2.60;;;;;;;18.47;70.76;94732.56;5131999;27;20192;-76
2022/08/05 00:46:23;;;;;;;4.05;2.70;;;;;;;18.44;70.55;94727.84;5125845;27;20201;-77
2022/08/05 00:48:50;;;;;;;5.93;3.05;;;;;;;18.41;70.72;94736.81;5131492;27;20657;-76
2022/08/05 00:51:17;;;;;;;3.15;2.60;;;;;;;18.37;70.70;94735.97;5130974;27;20224;-77
2022/08/05 00:53:45;;;;;;;3.40;2.53;;;;;;;18.29;71.20;94737.06;5131379;27;20268;-78
2022/08/05 00:56:15;;;;;;;5.47;2.88;;;;;;;18.06;73.13;94741.84;5131250;27;20203;-77
2022/08/05 00:58:42;;;;;;;5.57;3.22;;;;;;;18.18;72.46;94741.63;5131214;27;20682;-77
2022/08/05 01:01:10;;;;;;;39.00;5.03;;;;;;;18.15;71.98;94731.41;5131399;27;20200;-77
2022/08/05 01:03:39;;;;;;;5.97;3.00;;;;;;;18.13;71.95;94732.94;5131552;27;20227;-76
2022/08/05 01:06:06;;;;;;;4.13;2.70;;;;;;;18.10;72.17;94735.25;5131084;27;20201;-76
2022/08/05 01:08:33;;;;;;;4.22;2.80;;;;;;;18.10;72.52;94723.50;5131416;27;20208;-77
2022/08/05 01:11:04;;;;;;;3.95;2.55;;;;;;;18.26;72.95;94737.81;5130492;27;20240;-76
2022/08/05 01:13:38;;;;;;;5.55;3.00;;;;;;;18.17;72.47;94740.06;5122751;27;20242;-76
2022/08/05 01:16:10;;;;;;;4.00;3.15;;;;;;;18.17;72.60;94733.78;5130864;27;20558;-77
2022/08/05 01:18:47;;;;;;;5.55;3.10;;;;;;;18.16;73.17;94738.47;5131053;27;20189;-77
2022/08/05 01:21:25;;;;;;;4.25;2.90;;;;;;;18.14;73.55;94740.81;5131230;27;20275;-78
2022/08/05 01:24:02;;;;;;;4.30;3.20;;;;;;;18.09;72.36;94727.41;5130960;27;20964;-77
2022/08/05 01:26:39;;;;;;;4.22;2.88;;;;;;;18.11;73.84;94736.06;5130794;27;20528;-76
2022/08/05 01:29:14;;;;;;;8.48;3.13;;;;;;;18.10;73.48;94739.97;5131097;27;20269;-77
2022/08/05 01:31:45;;;;;;;3.53;2.80;;;;;;;18.05;73.26;94743.00;5130878;27;20312;-76
2022/08/05 01:34:15;;;;;;;6.93;2.75;;;;;;;17.92;73.37;94739.72;5131085;28;20197;-77
2022/08/05 01:36:46;;;;;;;6.88;3.15;;;;;;;17.79;74.29;94741.09;5130145;27;20242;-76
2022/08/05 01:39:16;;;;;;;4.80;2.90;;;;;;;17.82;74.15;94731.34;5130693;27;20767;-76
2022/08/05 01:41:45;;;;;;;4.43;3.15;;;;;;;17.85;73.58;94734.16;5130057;27;20891;-77
2022/08/05 01:44:16;;;;;;;7.32;3.20;;;;;;;17.85;73.10;94736.09;5130643;28;20716;-77
2022/08/05 01:46:44;;;;;;;6.13;3.58;;;;;;;17.74;74.07;94739.50;5123160;28;20717;-77
2022/08/05 01:49:15;;;;;;;4.88;3.58;;;;;;;17.62;75.18;94745.16;5123682;28;20205;-77
2022/08/05 01:51:43;;;;;;;3.42;2.72;;;;;;;17.57;75.64;94744.69;5118447;28;20221;-78
2022/08/05 01:54:12;;;;;;;5.18;2.97;;;;;;;17.63;75.59;94749.50;5129092;28;20712;-78
2022/08/05 01:56:41;;;;;;;4.82;2.90;;;;;;;17.68;75.50;94743.69;5118661;28;20205;-77
2022/08/05 01:59:15;;;;;;;5.78;2.95;;;;;;;17.58;75.38;94749.78;5114487;28;20201;-78
2022/08/05 02:01:43;;;;;;;6.55;3.35;;;;;;;17.55;75.11;94742.31;5120482;28;20296;-77
2022/08/05 02:04:11;;;;;;;3.03;2.72;;;;;;;17.51;74.86;94733.25;5116764;28;20269;-77
2022/08/05 02:06:39;;;;;;;3.70;2.72;;;;;;;17.52;74.66;94740.28;5119867;28;20202;-77
2022/08/05 02:09:07;;;;;;;4.07;3.10;;;;;;;17.57;74.74;94734.50;5123596;28;20660;-76
2022/08/05 02:11:44;;;;;;;5.70;3.70;;;;;;;17.51;74.91;94751.63;5121132;28;20237;-76
2022/08/05 02:14:16;;;;;;;5.20;3.63;;;;;;;17.39;75.55;94758.09;5130527;28;20701;-77
2022/08/05 02:16:47;;;;;;;4.00;3.47;;;;;;;17.33;75.83;94754.09;5130775;28;20250;-76
2022/08/05 02:19:24;;;;;;;6.55;3.42;;;;;;;17.30;75.98;94757.56;5130788;28;20202;-76
2022/08/05 02:21:58;;;;;;;4.25;2.40;;;;;;;17.31;75.95;94759.94;5130726;28;20279;-77
2022/08/05 02:24:31;;;;;;;4.13;2.42;;;;;;;17.31;75.54;94743.50;5130438;28;20246;-77
2022/08/05 02:27:01;;;;;;;5.90;2.92;;;;;;;17.39;75.09;94744.41;5129492;28;20204;-77
2022/08/05 02:29:34;;;;;;;4.35;2.50;;;;;;;17.36;74.98;94734.19;5129776;28;20226;-77
2022/08/05 02:32:02;;;;;;;4.80;2.55;;;;;;;17.36;75.21;94739.66;5115585;28;20273;-77
2022/08/05 02:34:31;;;;;;;4.88;3.58;;;;;;;17.34;75.16;94742.00;5129710;28;20651;-77
2022/08/05 02:37:02;;;;;;;3.00;2.65;;;;;;;17.36;75.52;94742.41;5130292;28;20213;-78
2022/08/05 02:39:34;;;;;;;5.32;2.58;;;;;;;17.34;75.51;94740.03;5130190;27;20632;-77
2022/08/05 02:42:03;;;;;;;3.13;2.78;;;;;;;17.29;75.55;94739.56;5130394;28;20188;-77
2022/08/05 02:44:35;;;;;;;4.32;3.05;;;;;;;17.27;75.78;94741.88;5129618;28;20679;-77
2022/08/05 02:47:03;;;;;;;4.38;3.33;;;;;;;17.14;75.98;94738.53;5119579;28;20253;-77
2022/08/05 02:49:32;;;;;;;3.95;2.83;;;;;;;17.07;76.56;94737.66;5126625;27;20218;-77
2022/08/05 02:52:00;;;;;;;3.78;3.10;;;;;;;16.99;77.04;94737.50;5124248;27;20794;-78
2022/08/05 02:54:28;;;;;;;6.25;3.17;;;;;;;16.91;77.17;94735.81;5119953;27;20277;-77
2022/08/05 02:56:56;;;;;;;8.43;3.45;;;;;;;16.90;77.08;94734.22;5121524;27;20266;-77
2022/08/05 02:59:25;;;;;;;4.40;3.20;;;;;;;16.95;76.71;94736.66;5126519;27;20259;-77
2022/08/05 03:01:59;;;;;;;5.07;3.60;;;;;;;16.98;77.09;94735.91;5125398;27;20200;-77
2022/08/05 03:04:27;;;;;;;5.05;3.42;;;;;;;16.99;76.93;94725.75;5119957;27;20193;-78
2022/08/05 03:06:55;;;;;;;3.33;2.92;;;;;;;16.99;76.80;94737.50;5119934;27;20259;-77
2022/08/05 03:09:22;;;;;;;5.03;3.25;;;;;;;17.03;76.66;94732.88;5119827;27;20204;-77
2022/08/05 03:11:50;;;;;;;6.82;3.65;;;;;;;17.02;77.41;94742.25;5132819;27;20730;-77
2022/08/05 03:14:16;;;;;;;3.90;3.10;;;;;;;17.11;76.97;94738.47;5124736;27;20302;-77
2022/08/05 03:16:43;;;;;;;4.75;3.58;;;;;;;17.06;77.14;94742.31;5133260;27;20216;-77
2022/08/05 03:19:11;;;;;;;4.80;3.67;;;;;;;17.07;76.58;94743.13;5133449;27;20234;-78
2022/08/05 03:21:38;;;;;;;5.63;3.50;;;;;;;17.00;76.43;94749.25;5132483;27;20246;-77
2022/08/05 03:24:07;;;;;;;6.80;3.30;;;;;;;17.02;77.00;94742.25;5132786;27;20205;-77
2022/08/05 03:26:33;;;;;;;4.95;3.17;;;;;;;17.23;75.95;94741.81;5133416;27;20437;-78
2022/08/05 03:29:01;;;;;;;12.93;3.33;;;;;;;17.25;75.58;94738.69;5132928;27;20213;-77
2022/08/05 03:31:28;;;;;;;6.57;3.15;;;;;;;17.38;75.41;94742.81;5132260;27;20237;-77
2022/08/05 03:33:55;;;;;;;4.55;3.17;;;;;;;17.60;75.27;94739.25;5124071;27;20210;-77
2022/08/05 03:36:24;;;;;;;2.50;1.98;;;;;;;17.97;74.20;94736.66;5127438;27;20197;-77
2022/08/05 03:38:51;;;;;;;3.55;1.83;;;;;;;18.46;72.70;94741.94;5131961;27;20227;-77
2022/08/05 03:41:18;;;;;;;2.65;2.08;;;;;;;19.10;70.81;94731.66;5129756;27;20265;-76
2022/08/05 03:43:44;;;;;;;2.05;1.65;;;;;;;19.86;68.38;94734.59;5111732;28;20710;-76
2022/08/05 03:46:11;;;;;;;6.22;3.08;;;;;;;20.57;65.75;94721.19;5127605;27;20205;-77
2022/08/05 03:48:38;;;;;;;5.55;2.58;;;;;;;21.28;63.62;94729.59;5132566;27;20675;-76
2022/08/05 03:51:12;;;;;;;4.22;2.38;;;;;;;21.92;61.97;94718.47;5131848;27;20224;-77
2022/08/05 03:53:48;;;;;;;3.80;2.58;;;;;;;22.25;60.82;94721.97;5131797;27;20230;-76
2022/08/05 03:56:22;;;;;;;3.95;2.80;;;;;;;22.59;59.68;94717.47;5132550;27;20215;-76
2022/08/05 03:58:53;;;;;;;4.68;4.03;;;;;;;22.97;58.45;94715.69;5132046;27;20281;-76
2022/08/05 04:01:22;;;;;;;3.95;3.28;;;;;;;23.17;57.05;94718.75;5118894;27;20694;-77
2022/08/05 04:03:50;;;;;;;4.70;3.65;;;;;;;23.71;55.33;94710.81;5132601;27;20255;-76
2022/08/05 04:06:18;;;;;;;4.28;3.85;;;;;;;23.65;54.98;94721.53;5131377;27;20419;-76
2022/08/05 04:08:48;;;;;;;4.63;4.13;;;;;;;24.09;53.69;94712.38;5131013;27;20522;-74
2022/08/05 04:11:15;;;;;;;4.55;3.85;;;;;;;24.49;52.36;94720.25;5131942;27;21001;-76
2022/08/05 04:13:42;;;;;;;3.88;3.47;;;;;;;25.73;49.94;94715.72;5132003;27;20659;-76
2022/08/05 04:16:09;;;;;;;5.45;4.13;;;;;;;26.49;47.56;94706.38;5131815;27;20604;-78
2022/08/05 04:18:38;;;;;;;4.07;3.67;;;;;;;27.18;46.02;94700.94;5132088;27;20254;-77
2022/08/05 04:21:06;;;;;;;5.40;4.25;;;;;;;27.28;45.41;94711.03;5132183;27;20205;-77
2022/08/05 04:23:36;;;;;;;4.28;3.42;;;;;;;27.09;46.07;94709.88;5132183;27;20197;-77
2022/08/05 04:26:05;;;;;;;5.55;3.63;;;;;;;27.82;44.53;94710.53;5131821;27;20189;-77
2022/08/05 04:28:31;;;;;;;3.65;3.35;;;;;;;27.61;44.70;94699.97;5131642;27;20208;-78
2022/08/05 04:30:59;;;;;;;5.43;3.58;;;;;;;28.02;43.48;94707.66;5131238;27;20840;-78
2022/08/05 04:33:26;;;;;;;4.25;3.80;;;;;;;28.05;43.44;94707.53;5131744;27;20257;-78
2022/08/05 04:35:53;;;;;;;5.53;4.57;;;;;;;28.59;42.78;94702.09;5130556;27;20205;-78
2022/08/05 04:38:29;;;;;;;5.88;4.10;;;;;;;28.84;41.71;94695.81;5131276;27;20229;-78
2022/08/05 04:40:56;;;;;;;5.30;4.35;;;;;;;28.78;41.74;94705.16;5130851;27;20217;-78
2022/08/05 04:43:24;;;;;;;4.90;3.75;;;;;;;29.45;40.49;94688.38;5130712;27;20205;-78
2022/08/05 04:45:51;;;;;;;5.60;4.43;;;;;;;29.32;40.71;94703.09;5130709;27;20744;-78
2022/08/05 04:48:18;;;;;;;4.30;3.90;;;;;;;29.52;40.06;94697.28;5131546;27;20193;-79
2022/08/05 04:50:49;;;;;;;5.25;4.15;;;;;;;29.58;39.72;94701.09;5129061;27;20201;-79
2022/08/05 04:53:17;;;;;;;9.65;4.65;;;;;;;30.28;38.30;94699.94;5131552;27;20273;-79
2022/08/05 04:55:45;;;;;;;5.82;4.35;;;;;;;30.70;37.90;94702.47;5131447;27;20197;-79
2022/08/05 04:58:14;;;;;;;5.47;4.30;;;;;;;30.47;38.08;94705.69;5130824;27;20230;-78
2022/08/05 05:00:42;;;;;;;5.10;4.38;;;;;;;30.51;37.51;94700.72;5130550;27;20217;-79
2022/08/05 05:03:10;;;;;;;5.85;4.60;;;;;;;30.79;37.58;94702.50;5130185;27;20357;-79
2022/08/05 05:05:38;;;;;;;4.53;4.10;;;;;;;30.55;37.40;94695.81;5128878;27;20209;-79
2022/08/05 05:08:09;;;;;;;6.80;5.18;;;;;;;30.79;36.86;94698.91;5120505;27;20601;-78
2022/08/05 05:10:40;;;;;;;5.07;4.47;;;;;;;30.90;37.19;94693.69;5116594;27;20233;-77
2022/08/05 05:13:07;;;;;;;5.15;4.65;;;;;;;32.12;35.64;94696.81;5126795;27;20573;-78
2022/08/05 05:15:34;;;;;;;5.88;4.00;;;;;;;31.95;35.27;94695.56;5130875;27;20678;-79
2022/08/05 05:18:06;;;;;;;5.43;3.83;;;;;;;32.48;34.72;94690.47;5130738;27;20200;-77
2022/08/05 05:20:33;;;;;;;6.22;4.63;;;;;;;32.41;34.52;94694.34;5130914;27;20205;-78
2022/08/05 05:23:03;;;;;;;6.32;4.55;;;;;;;32.33;34.82;94701.53;5130049;27;20197;-78
2022/08/05 05:25:30;;;;;;;4.40;4.00;;;;;;;32.82;33.78;94697.78;5129651;27;20253;-79
2022/08/05 05:27:57;;;;;;;5.47;4.78;;;;;;;33.53;33.12;94691.66;5116957;27;20205;-78
2022/08/05 05:30:24;;;;;;;5.50;4.72;;;;;;;33.51;33.01;94688.53;5117242;27;20245;-78
2022/08/05 05:32:54;;;;;;;7.35;4.95;;;;;;;33.83;32.45;94684.97;5116523;27;20285;-78
2022/08/05 05:35:22;;;;;;;6.38;5.05;;;;;;;34.28;31.71;94688.75;5125867;28;20193;-78
2022/08/05 05:37:51;;;;;;;5.78;4.65;;;;;;;34.64;31.14;94684.84;5116719;28;20765;-79
2022/08/05 05:40:19;;;;;;;6.22;5.05;;;;;;;34.80;31.19;94686.44;5119831;28;20209;-79
2022/08/05 05:42:45;;;;;;;5.95;5.05;;;;;;;35.08;30.70;94684.13;5116475;28;20663;-79
2022/08/05 05:45:12;;;;;;;5.72;5.07;;;;;;;34.33;31.77;94685.25;5130219;28;20201;-79
2022/08/05 05:47:39;;;;;;;6.53;4.80;;;;;;;35.49;29.83;94685.88;5122590;28;20206;-78
2022/08/05 05:50:07;;;;;;;6.15;4.80;;;;;;;35.17;30.25;94687.63;5120922;28;20200;-78
2022/08/05 05:52:36;;;;;;;6.00;4.88;;;;;;;34.97;30.35;94689.56;5118395;28;20219;-79
2022/08/05 05:55:07;;;;;;;7.40;4.80;;;;;;;34.91;30.85;94693.06;5121969;28;20498;-78
2022/08/05 05:57:34;;;;;;;5.05;4.55;;;;;;;34.65;31.55;94691.25;5130876;28;20201;-79
2022/08/05 06:00:01;;;;;;;5.43;4.78;;;;;;;35.15;30.21;94695.78;5117158;28;20186;-79
2022/08/05 06:02:28;;;;;;;5.97;5.03;;;;;;;35.26;30.38;94701.63;5118973;28;20238;-80
2022/08/05 06:04:55;;;;;;;5.18;4.68;;;;;;;33.91;32.36;94695.84;5119242;28;20206;-81
2022/08/05 06:07:22;;;;;;;5.22;4.72;;;;;;;34.85;30.99;94694.22;5130729;28;20329;-80
2022/08/05 06:09:50;;;;;;;5.10;4.57;;;;;;;35.09;31.14;94697.72;5130994;28;20200;-79
2022/08/05 06:12:20;;;;;;;5.60;5.00;;;;;;;34.73;31.16;94692.41;5126099;28;20234;-80
2022/08/05 06:14:47;;;;;;;5.65;4.97;;;;;;;34.74;30.89;94696.78;5117128;28;20246;-77
2022/08/05 06:17:13;;;;;;;7.93;4.82;;;;;;;34.22;31.16;94699.84;5119634;28;20190;-77
2022/08/05 06:19:41;;;;;;;7.40;4.88;;;;;;;32.22;34.21;94706.84;5117343;28;20202;-81
2022/08/05 06:22:08;;;;;;;6.25;4.90;;;;;;;31.85;35.15;94710.78;5117475;27;20194;-79
2022/08/05 06:24:41;;;;;;;8.07;4.97;;;;;;;33.81;32.60;94698.72;5123630;27;20198;-79
2022/08/05 06:27:09;;;;;;;5.72;5.05;;;;;;;34.49;31.26;94698.88;5122301;27;20268;-79
2022/08/05 06:29:36;;;;;;;7.20;5.13;;;;;;;33.98;32.03;94696.28;5124547;27;20193;-79
2022/08/05 06:32:03;;;;;;;5.07;4.57;;;;;;;33.69;32.77;94699.69;5131453;27;20897;-80
2022/08/05 06:34:30;;;;;;;4.57;4.18;;;;;;;33.42;32.81;94702.63;5127788;27;20250;-79
2022/08/05 06:36:56;;;;;;;6.47;4.75;;;;;;;33.85;32.07;94693.72;5133485;27;20220;-78
2022/08/05 06:39:23;;;;;;;4.72;3.95;;;;;;;34.51;31.58;94698.41;5134013;27;20412;-81
2022/08/05 06:41:50;;;;;;;4.95;4.40;;;;;;;34.91;30.72;94697.91;5133948;27;20201;-79
2022/08/05 06:44:19;;;;;;;4.68;4.28;;;;;;;36.56;28.55;94691.72;5133733;27;20201;-80
2022/08/05 06:46:45;;;;;;;5.72;4.25;;;;;;;34.44;30.54;94699.53;5128110;27;20528;-78
2022/08/05 06:49:12;;;;;;;7.00;4.97;;;;;;;32.43;33.36;94705.13;5133600;27;20201;-78
2022/08/05 06:51:39;;;;;;;10.27;5.07;;;;;;;33.86;31.50;94697.28;5133329;27;20205;-77
2022/08/05 06:54:06;;;;;;;7.13;5.28;;;;;;;34.40;31.02;94687.72;5119967;27;20736;-78
2022/08/05 06:56:33;;;;;;;7.13;5.03;;;;;;;34.62;29.92;94686.59;5133480;27;20660;-79
2022/08/05 06:59:00;;;;;;;5.38;4.88;;;;;;;33.24;32.11;94694.22;5129063;27;20203;-77
2022/08/05 07:01:28;;;;;;;6.68;5.00;;;;;;;33.91;31.20;94690.22;5121648;27;20265;-79
2022/08/05 07:03:55;;;;;;;7.18;4.75;;;;;;;34.04;31.38;94685.13;5133570;27;20269;-78
2022/08/05 07:06:22;;;;;;;5.78;4.70;;;;;;;35.35;30.00;94685.88;5133085;27;20281;-79
2022/08/05 07:08:49;;;;;;;5.97;4.03;;;;;;;35.67;29.93;94684.84;5129889;27;20280;-78
2022/08/05 07:11:16;;;;;;;4.80;4.03;;;;;;;34.66;30.43;94690.00;5123939;27;20233;-78
2022/08/05 07:19:17;;;;;;;5.85;3.75;;;;;;;32.93;32.63;94700.91;5115895;27;20289;-78
2022/08/05 13:12:45;;;;;;;2.80;2.58;;;;;;;31.58;30.18;94429.31;4306987;22;20225;-91
2022/08/05 13:15:14;;;;;;;3.15;2.85;;;;;;;31.21;31.17;94450.97;5006353;28;20205;-89
2022/08/05 13:17:53;;;;;;;4.25;2.60;;;;;;;31.08;31.41;94445.47;5012528;28;20656;-89
2022/08/05 13:20:20;;;;;;;2.90;2.70;;;;;;;30.66;31.44;94433.28;5011835;28;20204;-89
2022/08/05 13:22:49;;;;;;;3.00;2.70;;;;;;;30.45;31.92;94445.31;5012348;28;20296;-89
2022/08/05 13:25:18;;;;;;;2.60;2.40;;;;;;;30.48;32.35;94466.78;5012111;28;20236;-89
2022/08/05 13:27:49;;;;;;;3.15;2.67;;;;;;;30.52;31.94;94465.38;5011883;28;20205;-89
2022/08/05 13:30:20;;;;;;;3.58;3.00;;;;;;;30.30;32.63;94448.69;5012793;28;20201;-89
2022/08/05 13:32:47;;;;;;;3.35;2.80;;;;;;;30.28;32.73;94453.94;5011271;28;20769;-89
2022/08/05 13:37:56;;;;;;;3.13;2.83;;;;;;;30.30;32.51;94453.50;5001213;28;20224;-89
2022/08/05 13:40:24;;;;;;;2.88;2.53;;;;;;;30.17;32.95;94425.66;5013770;28;20606;-88
2022/08/05 13:42:52;;;;;;;4.25;3.10;;;;;;;30.30;31.85;94437.50;5011763;28;20197;-89
2022/08/05 13:45:19;;;;;;;3.53;2.95;;;;;;;30.21;32.22;94420.66;5011909;28;20213;-90
2022/08/05 13:47:52;;;;;;;3.30;2.67;;;;;;;30.35;32.38;94428.50;5012179;28;20648;-88
2022/08/05 13:50:30;;;;;;;4.03;3.17;;;;;;;30.37;31.88;94423.22;5011635;28;20211;-88
2022/08/05 13:52:57;;;;;;;3.25;2.70;;;;;;;30.74;32.59;94462.53;5011629;28;20224;-90
2022/08/05 13:55:24;;;;;;;3.30;2.90;;;;;;;30.51;30.90;94421.09;5011891;28;20201;-90
2022/08/05 13:57:52;;;;;;;3.75;3.33;;;;;;;30.40;31.22;94427.91;5012321;28;20244;-90
2022/08/05 14:00:20;;;;;;;2.97;2.67;;;;;;;30.74;30.43;94440.16;5011519;28;20232;-89
2022/08/05 14:02:47;;;;;;;3.60;2.75;;;;;;;30.82;31.04;94449.81;5012040;28;20220;-90
2022/08/05 14:05:14;;;;;;;3.75;2.53;;;;;;;30.64;30.08;94428.16;5011405;28;20266;-90
2022/08/05 14:07:43;;;;;;;2.80;2.42;;;;;;;31.02;30.60;94416.56;5012001;28;20264;-90
2022/08/05 14:10:12;;;;;;;3.13;2.80;;;;;;;31.67;30.14;94437.00;5011687;28;20660;-89
2022/08/05 14:12:40;;;;;;;3.15;2.85;;;;;;;31.90;30.09;94415.91;5011138;28;20749;-90
2022/08/05 14:15:09;;;;;;;3.10;2.80;;;;;;;31.99;29.58;94413.06;5008910;28;20316;-90
2022/08/05 14:17:36;;;;;;;2.60;2.33;;;;;;;32.06;28.93;94424.75;5012015;28;20201;-90
2022/08/05 14:20:04;;;;;;;2.70;2.40;;;;;;;31.85;28.84;94388.53;5011752;28;20212;-89
2022/08/05 14:22:34;;;;;;;2.65;2.42;;;;;;;32.06;28.41;94423.97;5010557;28;20201;-88
2022/08/05 14:25:01;;;;;;;3.35;2.40;;;;;;;31.83;28.89;94427.47;5011491;28;20224;-89
2022/08/05 14:27:28;;;;;;;2.97;2.60;;;;;;;31.93;28.48;94429.00;5011356;28;20712;-89
2022/08/05 14:29:55;;;;;;;2.75;2.40;;;;;;;31.30;29.73;94402.59;5011402;28;20275;-89
2022/08/05 14:32:24;;;;;;;2.35;2.10;;;;;;;31.45;29.48;94425.91;5011447;28;20826;-88
2022/08/05 14:37:40;;;;;;;2.40;2.15;;;;;;;31.37;29.35;94413.50;5009711;28;20292;-88
2022/08/05 14:40:08;;;;;;;2.78;2.40;;;;;;;31.35;29.36;94410.38;5011292;28;20220;-88
2022/08/05 14:42:35;;;;;;;2.50;2.30;;;;;;;31.58;29.63;94420.16;5011839;28;20197;-88
2022/08/05 14:45:02;;;;;;;3.13;2.78;;;;;;;31.84;28.70;94417.81;5014663;28;20215;-88
2022/08/05 14:47:40;;;;;;;5.13;2.55;;;;;;;32.10;28.84;94410.56;5014054;28;20213;-88
2022/08/05 14:50:08;;;;;;;2.78;2.50;;;;;;;31.78;28.59;94370.03;5014785;28;20209;-88
2022/08/05 14:52:35;;;;;;;2.83;2.30;;;;;;;31.89;28.48;94366.72;5013577;28;20205;-87
2022/08/05 14:55:02;;;;;;;3.85;2.20;;;;;;;31.78;28.56;94373.59;5014505;28;20263;-87
2022/08/05 14:57:31;;;;;;;2.88;2.30;;;;;;;31.59;29.72;94363.66;5014444;28;20201;-87
2022/08/05 14:59:58;;;;;;;3.03;2.60;;;;;;;31.55;28.59;94379.88;5014508;28;20208;-87
2022/08/05 15:02:25;;;;;;;3.97;2.47;;;;;;;31.77;28.51;94380.47;5013994;28;20228;-88
2022/08/05 15:04:54;;;;;;;2.33;2.13;;;;;;;32.08;28.35;94393.44;5014489;28;20211;-89
2022/08/05 15:07:21;;;;;;;2.30;2.10;;;;;;;31.57;28.54;94354.94;5014612;28;20197;-88
2022/08/05 15:09:48;;;;;;;2.28;2.08;;;;;;;31.45;29.20;94392.31;5014824;28;20209;-88
2022/08/05 15:12:15;;;;;;;2.40;2.20;;;;;;;30.94;28.97;94408.94;5014513;28;20201;-89
2022/08/05 15:14:42;;;;;;;2.55;2.22;;;;;;;30.85;29.35;94398.53;5013989;28;20233;-89
2022/08/05 15:17:09;;;;;;;2.33;2.00;;;;;;;30.73;29.67;94363.84;5013921;28;20215;-89
2022/08/05 15:19:36;;;;;;;2.40;1.95;;;;;;;30.75;29.33;94357.78;5014391;28;20205;-88
2022/08/05 15:22:07;;;;;;;2.47;2.28;;;;;;;30.74;28.68;94367.44;5014592;28;20219;-89
2022/08/05 15:24:34;;;;;;;2.35;2.00;;;;;;;30.84;28.91;94382.97;5013823;28;20687;-89
2022/08/05 15:27:03;;;;;;;2.33;2.13;;;;;;;30.70;29.51;94384.34;5014010;28;20201;-88
2022/08/05 15:29:30;;;;;;;2.83;2.22;;;;;;;30.42;30.03;94376.34;5014677;28;20300;-88
2022/08/05 15:31:57;;;;;;;2.10;1.90;;;;;;;30.27;30.39;94385.31;5018427;28;20219;-88
2022/08/05 15:34:24;;;;;;;2.80;2.35;;;;;;;29.95;30.21;94380.16;5023360;28;20263;-89
2022/08/05 15:36:51;;;;;;;2.67;2.15;;;;;;;29.77;31.20;94346.59;5009512;28;20204;-88
2022/08/05 15:39:21;;;;;;;2.50;1.90;;;;;;;30.06;31.30;94346.28;5017001;28;20201;-88
2022/08/05 15:41:48;;;;;;;3.75;2.38;;;;;;;30.23;30.72;94356.72;5012493;28;20213;-89
2022/08/05 15:44:14;;;;;;;2.72;2.10;;;;;;;30.32;30.37;94370.72;5015545;28;20220;-89
2022/08/05 15:46:41;;;;;;;2.28;2.08;;;;;;;30.20;30.56;94352.06;5015981;28;20259;-87
2022/08/05 15:49:09;;;;;;;2.50;2.22;;;;;;;30.19;30.91;94372.88;5020148;28;20193;-89
2022/08/05 15:51:36;;;;;;;3.47;2.50;;;;;;;30.16;30.84;94359.81;5029299;28;20259;-89
2022/08/05 15:54:02;;;;;;;3.88;2.50;;;;;;;30.18;31.17;94351.75;5030836;28;20197;-88
2022/08/05 15:56:31;;;;;;;4.05;2.58;;;;;;;30.34;31.47;94368.22;5029819;28;20201;-88
2022/08/05 15:58:58;;;;;;;3.22;2.55;;;;;;;30.07;31.84;94343.00;5030271;28;20211;-90
2022/08/05 16:01:25;;;;;;;2.78;2.42;;;;;;;30.11;32.20;94382.75;5028286;28;20679;-88
2022/08/05 16:03:52;;;;;;;3.38;2.55;;;;;;;29.70;32.10;94334.44;5020743;28;20231;-89
2022/08/05 16:06:19;;;;;;;3.33;2.50;;;;;;;29.88;32.38;94380.47;5025347;28;20208;-88
2022/08/05 16:08:46;;;;;;;2.33;2.00;;;;;;;29.78;32.45;94365.69;5030538;28;20241;-89
2022/08/05 16:11:13;;;;;;;2.80;2.30;;;;;;;29.97;33.63;94383.31;5026006;28;20231;-88
2022/08/05 16:13:42;;;;;;;2.25;2.05;;;;;;;29.88;33.29;94364.47;5018354;28;20275;-89
2022/08/05 16:16:13;;;;;;;2.60;2.17;;;;;;;29.62;32.75;94347.13;5014091;28;20208;-90
2022/08/05 16:18:41;;;;;;;2.53;2.33;;;;;;;29.80;33.42;94384.75;5016077;28;20209;-92
2022/08/05 16:21:08;;;;;;;2.58;2.25;;;;;;;29.70;32.61;94381.91;5014956;28;20292;-93
2022/08/05 16:23:35;;;;;;;3.40;2.45;;;;;;;29.75;33.15;94382.56;5013957;28;20229;-92
2022/08/05 16:26:06;;;;;;;2.90;2.38;;;;;;;29.43;33.03;94334.31;5013854;28;20299;-92
2022/08/05 16:28:33;;;;;;;2.72;2.08;;;;;;;29.68;33.01;94384.38;5013607;28;20612;-91
2022/08/05 16:31:01;;;;;;;2.58;2.38;;;;;;;29.57;33.31;94366.47;5014241;28;20292;-92
2022/08/05 16:33:32;;;;;;;2.50;2.30;;;;;;;29.23;33.47;94336.66;5008940;28;20209;-92
2022/08/05 16:35:59;;;;;;;2.63;2.30;;;;;;;29.41;33.24;94369.47;5012372;28;20228;-91
2022/08/05 16:38:26;;;;;;;2.60;2.40;;;;;;;29.00;33.23;94324.69;5012593;28;20197;-91
2022/08/05 16:40:54;;;;;;;2.40;2.15;;;;;;;29.16;34.01;94375.94;5000617;28;20268;-91
2022/08/05 16:43:22;;;;;;;3.55;2.65;;;;;;;29.15;34.22;94380.75;5012586;28;20699;-91
2022/08/05 16:45:50;;;;;;;2.70;2.30;;;;;;;28.90;34.28;94348.16;5007546;28;20669;-91
2022/08/05 16:48:19;;;;;;;3.72;2.70;;;;;;;28.80;34.04;94360.50;5012957;28;20303;-92
2022/08/05 16:50:46;;;;;;;2.63;2.28;;;;;;;28.97;34.43;94392.53;5012260;28;20201;-92
2022/08/05 16:53:13;;;;;;;3.17;2.17;;;;;;;28.84;33.83;94377.84;5012515;28;20644;-91
2022/08/05 16:55:40;;;;;;;3.20;2.30;;;;;;;28.86;34.08;94400.50;5011717;28;20228;-91
2022/08/05 16:58:08;;;;;;;2.65;2.30;;;;;;;28.80;34.11;94396.75;5012644;28;20239;-92
2022/08/05 17:00:40;;;;;;;2.60;2.40;;;;;;;28.73;34.58;94394.16;5021723;28;20204;-93
2022/08/05 17:03:07;;;;;;;2.50;2.28;;;;;;;28.62;33.77;94393.75;5015323;28;20284;-91
2022/08/05 17:05:35;;;;;;;3.00;2.25;;;;;;;28.57;34.37;94386.72;5013396;28;20267;-88
2022/08/05 17:08:02;;;;;;;3.78;2.30;;;;;;;28.50;34.60;94402.91;5013187;28;20212;-90
2022/08/05 17:10:29;;;;;;;4.07;2.45;;;;;;;28.45;34.53;94403.47;5004925;28;20217;-90
2022/08/05 17:12:56;;;;;;;3.35;2.50;;;;;;;28.09;35.00;94357.25;5004644;28;20232;-89
2022/08/05 17:15:23;;;;;;;3.58;2.70;;;;;;;28.11;35.04;94376.28;4966093;28;20336;-90
2022/08/05 17:17:50;;;;;;;5.05;3.08;;;;;;;28.22;35.12;94413.75;4968651;28;20200;-91
2022/08/05 17:20:18;;;;;;;6.25;4.18;;;;;;;28.08;35.49;94388.31;4969557;28;20289;-94
2022/08/05 17:22:46;;;;;;;6.40;3.50;;;;;;;27.95;35.38;94393.91;4965228;28;20206;-90
2022/08/05 17:25:13;;;;;;;4.75;3.30;;;;;;;27.84;35.80;94399.03;4969664;28;20234;-92
2022/08/05 17:27:40;;;;;;;3.67;3.00;;;;;;;27.91;36.07;94415.50;4972647;28;20203;-90
2022/08/05 17:30:08;;;;;;;3.53;2.80;;;;;;;27.46;36.00;94362.78;4968009;28;20565;-91
2022/08/05 17:32:35;;;;;;;3.58;2.97;;;;;;;27.45;36.31;94375.91;4972636;28;20210;-90
2022/08/05 17:35:02;;;;;;;6.53;3.35;;;;;;;27.72;36.38;94422.06;4969595;28;20206;-89
2022/08/05 17:37:32;;;;;;;4.22;3.28;;;;;;;27.41;36.84;94408.59;4968262;28;20677;-90
2022/08/05 17:40:00;;;;;;;5.47;3.30;;;;;;;27.38;37.02;94426.19;4963356;28;20213;-91
2022/08/05 17:42:28;;;;;;;11.15;6.95;;;;;;;27.23;37.76;94419.44;4967577;28;20234;-89